sensor_id;sensor_type;location;lat;lon;timestamp;P1;durP1;ratioP1;P2;durP2;ratioP2
38358;SDS011;42072;48.044;14.416;2023-03-07T19:31:21;37.50;;;17.85;;
38358;SDS011;42072;48.044;14.416;2023-03-07T19:33:53;37.03;;;17.30;;
38358;SDS011;42072;48.044;14.416;2023-03-07T19:36:23;35.13;;;18.23;;
38358;SDS011;42072;48.044;14.416;2023-03-07T19:38:53;37.67;;;19.42;;
38358;SDS011;42072;48.044;14.416;2023-03-07T19:41:25;51.78;;;26.92;;
38358;SDS011;42072;48.044;14.416;2023-03-07T19:43:55;50.05;;;23.38;;
38358;SDS011;42072;48.044;14.416;2023-03-07T19:46:27;43.58;;;22.13;;
38358;SDS011;42072;48.044;14.416;2023-03-07T19:48:54;47.03;;;24.02;;
38358;SDS011;42072;48.044;14.416;2023-03-07T19:51:24;50.65;;;22.42;;
38358;SDS011;42072;48.044;14.416;2023-03-07T19:53:55;42.53;;;21.20;;
38358;SDS011;42072;48.044;14.416;2023-03-07T19:56:31;42.80;;;23.95;;
38358;SDS011;42072;48.044;14.416;2023-03-07T19:59:03;42.53;;;22.45;;
38358;SDS011;42072;48.044;14.416;2023-03-07T20:01:36;46.45;;;22.33;;
38358;SDS011;42072;48.044;14.416;2023-03-07T20:04:10;39.08;;;21.50;;
38358;SDS011;42072;48.044;14.416;2023-03-07T20:06:42;43.15;;;22.35;;
38358;SDS011;42072;48.044;14.416;2023-03-07T20:09:11;43.05;;;19.83;;
38358;SDS011;42072;48.044;14.416;2023-03-07T20:11:41;43.60;;;20.02;;
38358;SDS011;42072;48.044;14.416;2023-03-07T20:14:10;40.38;;;20.48;;
38358;SDS011;42072;48.044;14.416;2023-03-07T20:16:38;40.85;;;20.98;;
38358;SDS011;42072;48.044;14.416;2023-03-07T20:19:07;34.92;;;18.45;;
38358;SDS011;42072;48.044;14.416;2023-03-07T20:21:38;35.95;;;16.77;;
38358;SDS011;42072;48.044;14.416;2023-03-07T20:24:22;35.65;;;18.88;;
38358;SDS011;42072;48.044;14.416;2023-03-07T20:27:01;44.53;;;20.55;;
38358;SDS011;42072;48.044;14.416;2023-03-07T20:29:36;34.30;;;17.55;;
38358;SDS011;42072;48.044;14.416;2023-03-07T20:32:07;39.25;;;19.17;;
38358;SDS011;42072;48.044;14.416;2023-03-07T20:34:37;36.83;;;18.90;;
38358;SDS011;42072;48.044;14.416;2023-03-07T20:37:06;35.85;;;19.00;;
38358;SDS011;42072;48.044;14.416;2023-03-07T20:39:36;45.35;;;23.42;;
38358;SDS011;42072;48.044;14.416;2023-03-07T20:42:05;53.80;;;26.98;;
38358;SDS011;42072;48.044;14.416;2023-03-07T20:44:34;56.20;;;28.15;;
38358;SDS011;42072;48.044;14.416;2023-03-07T20:47:02;51.92;;;27.50;;
38358;SDS011;42072;48.044;14.416;2023-03-07T20:49:30;49.83;;;25.30;;
38358;SDS011;42072;48.044;14.416;2023-03-07T20:51:59;52.60;;;26.65;;
38358;SDS011;42072;48.044;14.416;2023-03-07T20:54:27;46.08;;;21.83;;
38358;SDS011;42072;48.044;14.416;2023-03-07T20:56:55;47.53;;;21.75;;
38358;SDS011;42072;48.044;14.416;2023-03-07T20:59:25;47.95;;;21.48;;
38358;SDS011;42072;48.044;14.416;2023-03-07T21:01:53;47.30;;;22.30;;
38358;SDS011;42072;48.044;14.416;2023-03-07T21:04:22;46.03;;;20.75;;
38358;SDS011;42072;48.044;14.416;2023-03-07T21:06:50;43.97;;;21.05;;
38358;SDS011;42072;48.044;14.416;2023-03-07T21:09:18;42.92;;;20.48;;
38358;SDS011;42072;48.044;14.416;2023-03-07T21:11:47;44.40;;;22.10;;
38358;SDS011;42072;48.044;14.416;2023-03-07T21:14:16;48.22;;;22.60;;
38358;SDS011;42072;48.044;14.416;2023-03-07T21:16:47;51.85;;;24.58;;
38358;SDS011;42072;48.044;14.416;2023-03-07T21:19:18;47.55;;;23.80;;
38358;SDS011;42072;48.044;14.416;2023-03-07T21:21:47;51.88;;;25.48;;
38358;SDS011;42072;48.044;14.416;2023-03-07T21:24:19;49.30;;;24.42;;
38358;SDS011;42072;48.044;14.416;2023-03-07T21:26:47;49.63;;;24.90;;
38358;SDS011;42072;48.044;14.416;2023-03-07T21:29:15;43.35;;;21.23;;
38358;SDS011;42072;48.044;14.416;2023-03-07T21:31:44;38.15;;;18.55;;
38358;SDS011;42072;48.044;14.416;2023-03-07T21:34:12;38.67;;;18.25;;
38358;SDS011;42072;48.044;14.416;2023-03-07T21:36:41;38.22;;;18.58;;
38358;SDS011;42072;48.044;14.416;2023-03-07T21:39:09;34.60;;;17.38;;
38358;SDS011;42072;48.044;14.416;2023-03-07T21:41:37;39.67;;;17.88;;
38358;SDS011;42072;48.044;14.416;2023-03-07T21:44:05;35.53;;;16.25;;
38358;SDS011;42072;48.044;14.416;2023-03-07T21:46:35;34.72;;;17.58;;
38358;SDS011;42072;48.044;14.416;2023-03-07T21:49:02;40.38;;;20.23;;
38358;SDS011;42072;48.044;14.416;2023-03-07T21:51:30;44.20;;;20.10;;
38358;SDS011;42072;48.044;14.416;2023-03-07T21:53:58;37.60;;;18.35;;
38358;SDS011;42072;48.044;14.416;2023-03-07T21:56:26;29.15;;;15.98;;
38358;SDS011;42072;48.044;14.416;2023-03-07T21:58:53;31.77;;;16.38;;
38358;SDS011;42072;48.044;14.416;2023-03-07T22:01:25;33.83;;;16.02;;
38358;SDS011;42072;48.044;14.416;2023-03-07T22:03:54;36.22;;;16.83;;
38358;SDS011;42072;48.044;14.416;2023-03-07T22:06:23;35.45;;;16.25;;
38358;SDS011;42072;48.044;14.416;2023-03-07T22:08:51;31.20;;;16.05;;
38358;SDS011;42072;48.044;14.416;2023-03-07T22:11:20;36.83;;;17.02;;
38358;SDS011;42072;48.044;14.416;2023-03-07T22:13:48;31.00;;;16.30;;
38358;SDS011;42072;48.044;14.416;2023-03-07T22:16:16;31.73;;;16.10;;
38358;SDS011;42072;48.044;14.416;2023-03-07T22:18:55;29.83;;;15.35;;
38358;SDS011;42072;48.044;14.416;2023-03-07T22:21:22;29.05;;;14.55;;
38358;SDS011;42072;48.044;14.416;2023-03-07T22:23:52;30.42;;;15.02;;
38358;SDS011;42072;48.044;14.416;2023-03-07T22:26:27;27.00;;;15.57;;
38358;SDS011;42072;48.044;14.416;2023-03-07T22:28:55;29.50;;;13.88;;
38358;SDS011;42072;48.044;14.416;2023-03-07T22:31:23;29.13;;;14.65;;
38358;SDS011;42072;48.044;14.416;2023-03-07T22:33:50;26.90;;;14.73;;
38358;SDS011;42072;48.044;14.416;2023-03-07T22:36:18;28.23;;;14.20;;
38358;SDS011;42072;48.044;14.416;2023-03-07T22:38:45;30.00;;;14.52;;
38358;SDS011;42072;48.044;14.416;2023-03-07T22:41:16;27.75;;;13.98;;
38358;SDS011;42072;48.044;14.416;2023-03-07T22:43:43;28.83;;;14.63;;
38358;SDS011;42072;48.044;14.416;2023-03-07T22:46:11;27.25;;;12.88;;
38358;SDS011;42072;48.044;14.416;2023-03-07T22:48:38;22.27;;;11.95;;
38358;SDS011;42072;48.044;14.416;2023-03-07T22:51:12;23.95;;;12.75;;
38358;SDS011;42072;48.044;14.416;2023-03-07T22:53:43;21.08;;;12.00;;
38358;SDS011;42072;48.044;14.416;2023-03-07T22:56:15;19.77;;;10.40;;
38358;SDS011;42072;48.044;14.416;2023-03-07T22:58:46;24.23;;;12.35;;
38358;SDS011;42072;48.044;14.416;2023-03-07T23:01:14;23.05;;;10.80;;
38358;SDS011;42072;48.044;14.416;2023-03-07T23:03:45;23.13;;;10.90;;
38358;SDS011;42072;48.044;14.416;2023-03-07T23:06:17;17.80;;;10.15;;
38358;SDS011;42072;48.044;14.416;2023-03-07T23:08:46;19.17;;;10.43;;
38358;SDS011;42072;48.044;14.416;2023-03-07T23:11:15;17.55;;;9.75;;
38358;SDS011;42072;48.044;14.416;2023-03-07T23:13:44;20.17;;;10.10;;
38358;SDS011;42072;48.044;14.416;2023-03-07T23:16:12;20.05;;;10.10;;
38358;SDS011;42072;48.044;14.416;2023-03-07T23:18:42;22.23;;;10.38;;
38358;SDS011;42072;48.044;14.416;2023-03-07T23:21:11;20.20;;;9.75;;
38358;SDS011;42072;48.044;14.416;2023-03-07T23:23:40;16.85;;;9.75;;
38358;SDS011;42072;48.044;14.416;2023-03-07T23:26:07;17.75;;;9.60;;
38358;SDS011;42072;48.044;14.416;2023-03-07T23:28:34;16.75;;;8.90;;
38358;SDS011;42072;48.044;14.416;2023-03-07T23:31:01;20.45;;;9.90;;
38358;SDS011;42072;48.044;14.416;2023-03-07T23:33:29;20.80;;;10.30;;
38358;SDS011;42072;48.044;14.416;2023-03-07T23:35:59;19.38;;;9.75;;
38358;SDS011;42072;48.044;14.416;2023-03-07T23:38:27;16.48;;;9.80;;
38358;SDS011;42072;48.044;14.416;2023-03-07T23:40:54;17.05;;;9.27;;
38358;SDS011;42072;48.044;14.416;2023-03-07T23:43:23;19.52;;;9.00;;
38358;SDS011;42072;48.044;14.416;2023-03-07T23:45:50;21.67;;;9.35;;
38358;SDS011;42072;48.044;14.416;2023-03-07T23:48:17;15.65;;;9.50;;
38358;SDS011;42072;48.044;14.416;2023-03-07T23:50:46;17.73;;;8.80;;
38358;SDS011;42072;48.044;14.416;2023-03-07T23:53:14;15.60;;;8.35;;
38358;SDS011;42072;48.044;14.416;2023-03-07T23:55:41;16.90;;;8.90;;
38358;SDS011;42072;48.044;14.416;2023-03-07T23:58:08;18.63;;;9.07;;
